createdAt,value
2017-09-02T00:01:44.842Z,18.53
2017-09-02T00:04:12.460Z,20.40
2017-09-02T00:06:40.091Z,18.87
2017-09-02T00:09:07.703Z,19.67
2017-09-02T00:11:35.321Z,19.73
2017-09-02T00:14:02.921Z,19.20
2017-09-02T00:16:30.538Z,20.77
2017-09-02T00:18:58.147Z,20.40
2017-09-02T00:21:25.755Z,19.30
2017-09-02T00:23:53.421Z,20.20
2017-09-02T00:26:21.058Z,19.27
2017-09-02T00:28:48.717Z,20.47
2017-09-02T00:31:16.342Z,20.20
2017-09-02T00:33:43.961Z,19.33
2017-09-02T00:36:11.613Z,19.00
2017-09-02T00:38:39.280Z,19.67
2017-09-02T00:41:06.895Z,20.73
2017-09-02T00:43:34.522Z,20.00
2017-09-02T00:46:02.125Z,19.83
2017-09-02T00:48:29.742Z,19.57
2017-09-02T00:50:57.355Z,20.93
2017-09-02T00:53:24.967Z,21.27
2017-09-02T00:55:53.147Z,20.37
2017-09-02T00:58:20.768Z,19.10
2017-09-02T01:00:48.402Z,20.50
2017-09-02T01:03:16.050Z,19.37
2017-09-02T01:05:43.739Z,17.70
2017-09-02T01:08:11.366Z,19.07
2017-09-02T01:10:38.992Z,18.93
2017-09-02T01:13:06.621Z,18.90
2017-09-02T01:15:34.256Z,19.57
2017-09-02T01:18:01.843Z,20.30
2017-09-02T01:20:29.441Z,20.30
2017-09-02T01:22:57.087Z,19.57
2017-09-02T01:25:24.727Z,19.77
2017-09-02T01:27:52.362Z,18.43
2017-09-02T01:30:25.781Z,19.30
2017-09-02T01:32:53.418Z,19.57
2017-09-02T01:35:21.033Z,17.70
2017-09-02T01:37:48.647Z,19.17
2017-09-02T01:40:16.322Z,17.77
2017-09-02T01:42:44.622Z,18.37
2017-09-02T01:45:12.271Z,18.80
2017-09-02T01:47:39.927Z,18.67
2017-09-02T01:50:07.539Z,19.90
2017-09-02T01:52:35.154Z,19.73
2017-09-02T01:55:02.849Z,20.43
2017-09-02T01:57:30.454Z,20.27
2017-09-02T01:59:58.079Z,20.20
2017-09-02T02:02:26.275Z,18.50
2017-09-02T02:04:53.899Z,20.23
2017-09-02T02:07:21.524Z,18.50
2017-09-02T02:09:49.158Z,18.07
2017-09-02T02:12:16.767Z,18.23
2017-09-02T02:14:44.395Z,18.50
2017-09-02T02:17:12.037Z,18.20
2017-09-02T02:19:39.673Z,18.87
2017-09-02T02:22:07.287Z,18.30
2017-09-02T02:24:34.901Z,18.83
2017-09-02T02:27:02.508Z,19.47
2017-09-02T02:29:30.100Z,18.70
2017-09-02T02:31:57.718Z,19.43
2017-09-02T02:34:25.351Z,19.47
2017-09-02T02:36:52.965Z,18.30
2017-09-02T02:39:20.594Z,19.00
2017-09-02T02:41:48.272Z,18.50
2017-09-02T02:44:15.898Z,18.27
2017-09-02T02:46:43.519Z,18.77
2017-09-02T02:49:11.129Z,19.27
2017-09-02T02:51:38.736Z,19.00
2017-09-02T02:54:06.363Z,18.10
2017-09-02T02:56:33.991Z,16.90
2017-09-02T02:59:01.620Z,19.10
2017-09-02T03:01:29.250Z,17.10
2017-09-02T03:03:56.881Z,17.40
2017-09-02T03:06:24.503Z,18.57
2017-09-02T03:11:42.640Z,17.00
2017-09-02T03:14:10.248Z,17.40
2017-09-02T03:16:37.846Z,17.43
2017-09-02T03:19:05.486Z,16.87
2017-09-02T03:21:33.123Z,17.73
2017-09-02T03:24:00.725Z,16.37
2017-09-02T03:26:28.354Z,17.23
2017-09-02T03:28:56.848Z,19.10
2017-09-02T03:31:24.531Z,17.60
2017-09-02T03:33:52.154Z,18.93
2017-09-02T03:36:19.771Z,17.13
2017-09-02T03:38:47.413Z,18.03
2017-09-02T03:41:15.073Z,16.33
2017-09-02T03:43:42.765Z,18.30
2017-09-02T03:46:10.438Z,17.40
2017-09-02T03:48:38.088Z,17.20
2017-09-02T03:51:05.695Z,18.30
2017-09-02T03:53:36.628Z,17.60
2017-09-02T03:56:04.225Z,18.20
2017-09-02T03:58:31.833Z,17.27
2017-09-02T04:00:59.442Z,16.20
2017-09-02T04:03:27.043Z,17.07
2017-09-02T04:05:54.692Z,15.73
2017-09-02T04:08:22.329Z,16.03
2017-09-02T04:10:49.987Z,17.10
2017-09-02T04:13:17.602Z,16.87
2017-09-02T04:15:45.213Z,16.20
2017-09-02T04:18:12.812Z,17.00
2017-09-02T04:20:40.407Z,17.10
2017-09-02T04:23:08.902Z,16.63
2017-09-02T04:25:36.501Z,16.17
2017-09-02T04:28:04.102Z,16.00
2017-09-02T04:30:31.698Z,16.17
2017-09-02T04:32:59.435Z,15.27
2017-09-02T04:35:27.047Z,16.00
2017-09-02T04:37:54.713Z,15.43
2017-09-02T04:40:23.195Z,17.73
2017-09-02T04:42:50.821Z,14.87
2017-09-02T04:45:18.472Z,16.57
2017-09-02T04:47:46.084Z,16.50
2017-09-02T04:50:13.706Z,16.50
2017-09-02T04:52:41.319Z,17.10
2017-09-02T04:55:09.852Z,17.93
2017-09-02T04:57:37.462Z,18.27
2017-09-02T05:00:05.085Z,18.20
2017-09-02T05:02:32.714Z,19.33
2017-09-02T05:05:00.335Z,16.60
2017-09-02T05:07:27.941Z,16.83
2017-09-02T05:09:55.551Z,17.83
2017-09-02T05:12:23.435Z,17.80
2017-09-02T05:14:51.060Z,17.67
2017-09-02T05:17:18.687Z,18.30
2017-09-02T05:19:46.315Z,17.80
2017-09-02T05:22:13.935Z,18.30
2017-09-02T05:24:41.531Z,18.07
2017-09-02T05:27:09.165Z,18.50
2017-09-02T05:29:36.779Z,17.10
2017-09-02T05:32:04.430Z,17.07
2017-09-02T05:34:32.057Z,17.27
2017-09-02T05:36:59.681Z,17.63
2017-09-02T05:39:27.306Z,17.67
2017-09-02T05:41:54.934Z,18.20
2017-09-02T05:44:22.605Z,18.40
2017-09-02T05:46:50.269Z,17.50
2017-09-02T05:49:17.903Z,19.53
2017-09-02T05:51:45.502Z,17.00
2017-09-02T05:54:13.102Z,17.77
2017-09-02T05:56:40.744Z,18.60
2017-09-02T05:59:08.381Z,16.80
2017-09-02T06:01:35.990Z,18.10
2017-09-02T06:04:03.620Z,19.57
2017-09-02T06:06:31.292Z,19.00
2017-09-02T06:08:59.892Z,19.40
2017-09-02T06:11:27.518Z,19.30
2017-09-02T06:13:55.142Z,18.37
2017-09-02T06:16:22.740Z,18.50
2017-09-02T06:18:50.345Z,19.27
2017-09-02T06:21:17.968Z,19.30
2017-09-02T06:23:46.050Z,17.93
2017-09-02T06:26:13.667Z,17.00
2017-09-02T06:28:41.268Z,18.10
2017-09-02T06:31:08.918Z,18.93
2017-09-02T06:33:36.539Z,19.10
2017-09-02T06:36:04.138Z,20.30
2017-09-02T06:38:31.759Z,17.90
2017-09-02T06:40:59.482Z,16.57
2017-09-02T06:43:27.112Z,17.67
2017-09-02T06:45:54.748Z,18.07
2017-09-02T06:48:22.484Z,18.07
2017-09-02T06:50:50.106Z,18.33
2017-09-02T06:56:08.926Z,18.23
2017-09-02T06:58:36.537Z,17.37
2017-09-02T07:01:04.157Z,17.07
2017-09-02T07:03:31.770Z,17.83
2017-09-02T07:05:59.422Z,17.57
2017-09-02T07:08:27.057Z,17.87
2017-09-02T07:10:54.806Z,17.33
2017-09-02T07:13:22.411Z,16.33
2017-09-02T07:15:50.046Z,18.13
2017-09-02T07:18:17.660Z,17.00
2017-09-02T07:20:45.266Z,17.53
2017-09-02T07:23:13.751Z,17.67
2017-09-02T07:25:41.390Z,16.70
2017-09-02T07:28:09.020Z,18.30
2017-09-02T07:30:36.620Z,17.53
2017-09-02T07:33:04.260Z,17.40
2017-09-02T07:35:31.856Z,17.60
2017-09-02T07:37:59.498Z,17.20
2017-09-02T07:40:27.122Z,15.93
2017-09-02T07:42:55.459Z,16.07
2017-09-02T07:45:23.107Z,15.30
2017-09-02T07:47:50.736Z,15.30
2017-09-02T07:50:18.373Z,15.17
2017-09-02T07:52:45.987Z,13.70
2017-09-02T07:58:04.277Z,13.20
2017-09-02T08:03:22.382Z,11.13
2017-09-02T08:05:50.013Z,11.30
2017-09-02T08:08:17.760Z,10.03
2017-09-02T08:10:45.390Z,9.87
2017-09-02T08:13:13.008Z,10.63
2017-09-02T08:15:40.626Z,9.80
2017-09-02T08:18:08.211Z,8.90
2017-09-02T08:20:35.796Z,8.50
2017-09-02T08:23:03.398Z,9.83
2017-09-02T08:25:31.006Z,8.27
2017-09-02T08:27:58.615Z,8.40
2017-09-02T08:30:27.010Z,7.17
2017-09-02T08:32:54.680Z,6.00
2017-09-02T08:35:22.283Z,6.03
2017-09-02T08:37:50.166Z,6.37
2017-09-02T08:40:17.853Z,6.60
2017-09-02T08:42:45.452Z,5.60
2017-09-02T08:45:13.072Z,4.10
2017-09-02T08:47:40.703Z,3.90
2017-09-02T08:50:08.372Z,4.17
2017-09-02T08:52:36.037Z,4.07
2017-09-02T08:55:03.711Z,4.43
2017-09-02T08:57:31.315Z,4.13
2017-09-02T08:59:58.953Z,4.20
2017-09-02T09:02:26.543Z,4.83
2017-09-02T09:04:54.180Z,5.40
2017-09-02T09:07:21.804Z,5.50
2017-09-02T09:09:49.422Z,5.13
2017-09-02T09:12:17.049Z,6.40
2017-09-02T09:14:44.667Z,6.53
2017-09-02T09:17:12.276Z,6.00
2017-09-02T09:19:39.897Z,5.40
2017-09-02T09:22:07.514Z,5.57
2017-09-02T09:24:35.967Z,5.93
2017-09-02T09:27:03.631Z,5.13
2017-09-02T09:29:31.241Z,4.53
2017-09-02T09:31:58.844Z,4.10
2017-09-02T09:34:26.496Z,4.67
2017-09-02T09:36:54.138Z,4.33
2017-09-02T09:39:21.773Z,4.60
2017-09-02T09:41:49.624Z,4.50
2017-09-02T09:44:17.341Z,4.30
2017-09-02T09:46:44.965Z,3.77
2017-09-02T09:49:12.770Z,2.57
2017-09-02T09:51:40.396Z,2.40
2017-09-02T09:54:08.046Z,2.20
2017-09-02T09:56:35.676Z,1.67
2017-09-02T09:59:03.638Z,2.27
2017-09-02T10:01:31.285Z,2.53
2017-09-02T10:03:58.925Z,2.30
2017-09-02T10:06:26.542Z,1.60
2017-09-02T10:08:54.609Z,1.67
2017-09-02T10:11:22.210Z,1.97
2017-09-02T10:13:49.813Z,1.63
2017-09-02T10:16:17.449Z,1.33
2017-09-02T10:18:46.317Z,1.23
2017-09-02T10:21:13.932Z,1.87
2017-09-02T10:23:41.538Z,1.97
2017-09-02T10:26:09.232Z,1.50
2017-09-02T10:28:36.876Z,2.00
2017-09-02T10:31:04.486Z,1.87
2017-09-02T10:33:32.064Z,1.50
2017-09-02T10:35:59.690Z,1.33
2017-09-02T10:38:27.295Z,1.50
2017-09-02T10:43:45.853Z,1.77
2017-09-02T10:46:13.489Z,1.43
2017-09-02T10:48:41.099Z,2.00
2017-09-02T10:51:08.898Z,1.77
2017-09-02T10:53:36.597Z,1.83
2017-09-02T10:56:06.068Z,1.90
2017-09-02T10:58:33.675Z,1.40
2017-09-02T11:01:01.316Z,1.87
2017-09-02T11:03:29.685Z,1.70
2017-09-02T11:05:57.296Z,1.90
2017-09-02T11:08:24.913Z,1.60
2017-09-02T11:10:52.513Z,1.60
2017-09-02T11:13:20.104Z,2.00
2017-09-02T11:15:47.762Z,2.07
2017-09-02T11:18:15.428Z,1.80
2017-09-02T11:20:43.041Z,2.00
2017-09-02T11:23:14.995Z,1.70
2017-09-02T11:25:42.648Z,1.50
2017-09-02T11:28:10.244Z,1.43
2017-09-02T11:30:37.862Z,2.00
2017-09-02T11:33:06.228Z,1.40
2017-09-02T11:35:33.844Z,1.60
2017-09-02T11:38:02.376Z,1.50
2017-09-02T11:40:30.856Z,1.63
2017-09-02T11:42:58.521Z,1.73
2017-09-02T11:45:26.121Z,1.60
2017-09-02T11:47:53.710Z,1.50
2017-09-02T11:50:21.392Z,1.40
2017-09-02T11:52:49.009Z,1.60
2017-09-02T11:55:16.628Z,1.77
2017-09-02T11:57:44.405Z,1.50
2017-09-02T12:00:12.047Z,1.50
2017-09-02T12:02:39.674Z,1.70
2017-09-02T12:05:14.666Z,1.27
2017-09-02T12:07:42.310Z,1.40
2017-09-02T12:10:10.318Z,1.30
2017-09-02T12:12:37.916Z,1.40
2017-09-02T12:15:05.576Z,1.20
2017-09-02T12:17:33.209Z,1.47
2017-09-02T12:20:00.834Z,1.10
2017-09-02T12:22:28.508Z,1.50
2017-09-02T12:24:56.134Z,1.10
2017-09-02T12:27:23.754Z,1.60
2017-09-02T12:29:51.388Z,1.60
2017-09-02T12:32:19.023Z,1.37
2017-09-02T12:34:46.597Z,1.60
2017-09-02T12:37:14.985Z,1.50
2017-09-02T12:39:42.612Z,1.60
2017-09-02T12:42:11.193Z,1.37
2017-09-02T12:44:38.807Z,1.33
2017-09-02T12:47:06.468Z,1.53
2017-09-02T12:49:34.088Z,1.50
2017-09-02T12:52:01.700Z,1.60
2017-09-02T12:54:29.414Z,1.97
2017-09-02T12:56:57.037Z,1.63
2017-09-02T12:59:24.720Z,1.40
2017-09-02T13:01:52.337Z,1.80
2017-09-02T13:04:20.011Z,1.70
2017-09-02T13:06:47.684Z,2.00
2017-09-02T13:09:20.087Z,1.50
2017-09-02T13:11:47.694Z,1.67
2017-09-02T13:14:15.343Z,1.80
2017-09-02T13:16:43.940Z,1.60
2017-09-02T13:19:11.548Z,1.40
2017-09-02T13:21:39.155Z,1.43
2017-09-02T13:24:06.879Z,1.33
2017-09-02T13:26:34.509Z,1.90
2017-09-02T13:29:02.136Z,1.70
2017-09-02T13:31:29.748Z,1.63
2017-09-02T13:33:57.354Z,1.57
2017-09-02T13:36:25.011Z,1.57
2017-09-02T13:38:52.670Z,1.40
2017-09-02T13:41:21.153Z,1.43
2017-09-02T13:43:48.751Z,1.77
2017-09-02T13:46:16.367Z,1.87
2017-09-02T13:48:44.028Z,1.80
2017-09-02T13:51:12.234Z,1.60
2017-09-02T13:53:43.838Z,1.47
2017-09-02T13:56:11.566Z,1.30
2017-09-02T13:58:42.935Z,1.30
2017-09-02T14:01:10.560Z,1.40
2017-09-02T14:03:38.191Z,1.40
2017-09-02T14:06:05.811Z,1.20
2017-09-02T14:08:33.455Z,1.33
2017-09-02T14:11:01.076Z,1.30
2017-09-02T14:13:28.698Z,1.17
2017-09-02T14:15:56.291Z,1.13
2017-09-02T14:18:23.932Z,1.20
2017-09-02T14:20:51.526Z,1.57
2017-09-02T14:23:19.217Z,1.70
2017-09-02T14:25:46.880Z,1.47
2017-09-02T14:28:14.494Z,1.63
2017-09-02T14:30:42.166Z,1.80
2017-09-02T14:33:10.649Z,1.60
2017-09-02T14:35:38.229Z,1.40
2017-09-02T14:38:05.872Z,1.60
2017-09-02T14:40:33.478Z,1.47
2017-09-02T14:43:01.067Z,1.67
2017-09-02T14:45:29.570Z,1.83
2017-09-02T14:47:57.743Z,1.73
2017-09-02T14:50:25.355Z,1.60
2017-09-02T14:52:54.186Z,1.53
2017-09-02T14:55:21.776Z,1.60
2017-09-02T14:57:49.401Z,1.67
2017-09-02T15:00:17.026Z,1.73
2017-09-02T15:02:44.737Z,1.80
2017-09-02T15:05:12.368Z,2.23
2017-09-02T15:07:39.989Z,2.10
2017-09-02T15:10:07.594Z,2.20
2017-09-02T15:12:35.260Z,1.90
2017-09-02T15:15:02.864Z,2.10
2017-09-02T15:17:30.486Z,2.83
2017-09-02T15:19:58.176Z,3.33
2017-09-02T15:22:25.769Z,4.50
2017-09-02T15:24:53.399Z,2.83
2017-09-02T15:27:22.093Z,2.17
2017-09-02T15:29:50.044Z,2.17
2017-09-02T15:32:17.653Z,2.27
2017-09-02T15:34:45.266Z,2.40
2017-09-02T15:37:12.932Z,2.17
2017-09-02T15:39:40.714Z,2.37
2017-09-02T15:42:08.307Z,1.93
2017-09-02T15:44:35.925Z,2.27
2017-09-02T15:47:03.565Z,2.40
2017-09-02T15:49:31.871Z,4.13
2017-09-02T15:51:59.489Z,2.20
2017-09-02T15:54:27.136Z,2.00
2017-09-02T15:56:54.760Z,1.90
2017-09-02T15:59:23.145Z,2.50
2017-09-02T16:01:50.777Z,3.77
2017-09-02T16:04:18.464Z,1.70
2017-09-02T16:06:46.071Z,2.30
2017-09-02T16:09:14.214Z,3.17
2017-09-02T16:11:41.832Z,2.90
2017-09-02T16:14:09.425Z,2.20
2017-09-02T16:16:37.047Z,2.60
2017-09-02T16:19:04.644Z,2.53
2017-09-02T16:21:32.740Z,2.07
2017-09-02T16:24:00.362Z,1.70
2017-09-02T16:26:27.974Z,2.10
2017-09-02T16:28:56.521Z,1.60
2017-09-02T16:31:25.052Z,1.60
2017-09-02T16:33:52.668Z,1.70
2017-09-02T16:36:20.286Z,1.60
2017-09-02T16:38:47.872Z,1.50
2017-09-02T16:41:15.480Z,1.67
2017-09-02T16:43:43.097Z,1.60
2017-09-02T16:46:10.684Z,1.50
2017-09-02T16:48:38.306Z,1.60
2017-09-02T16:51:05.941Z,1.40
2017-09-02T16:53:33.674Z,1.33
2017-09-02T16:56:01.316Z,1.63
2017-09-02T16:58:28.959Z,1.80
2017-09-02T17:00:56.619Z,1.70
2017-09-02T17:03:24.274Z,1.13
2017-09-02T17:05:51.938Z,1.67
2017-09-02T17:08:19.600Z,1.70
2017-09-02T17:10:48.063Z,1.67
2017-09-02T17:13:15.720Z,1.53
2017-09-02T17:15:43.371Z,1.67
2017-09-02T17:18:11.022Z,1.50
2017-09-02T17:20:38.669Z,1.50
2017-09-02T17:23:06.317Z,1.47
2017-09-02T17:25:33.977Z,2.00
2017-09-02T17:28:02.511Z,2.23
2017-09-02T17:30:30.121Z,3.00
2017-09-02T17:32:57.771Z,2.77
2017-09-02T17:35:25.421Z,2.80
2017-09-02T17:37:53.021Z,3.73
2017-09-02T17:40:21.673Z,7.90
2017-09-02T17:42:49.352Z,2.40
2017-09-02T17:45:16.973Z,2.43
2017-09-02T17:47:44.594Z,2.10
2017-09-02T17:50:12.240Z,3.00
2017-09-02T17:52:39.831Z,2.87
2017-09-02T17:55:07.417Z,2.30
2017-09-02T17:57:35.055Z,2.70
2017-09-02T18:00:02.679Z,2.13
2017-09-02T18:02:30.290Z,2.50
2017-09-02T18:04:57.906Z,2.50
2017-09-02T18:07:25.787Z,2.27
2017-09-02T18:09:53.611Z,2.43
2017-09-02T18:12:21.267Z,2.10
2017-09-02T18:14:48.916Z,2.10
2017-09-02T18:17:16.789Z,2.73
2017-09-02T18:19:44.460Z,2.10
2017-09-02T18:22:12.085Z,2.40
2017-09-02T18:24:39.691Z,1.90
2017-09-02T18:27:07.330Z,2.10
2017-09-02T18:29:35.510Z,1.93
2017-09-02T18:32:03.125Z,1.87
2017-09-02T18:34:30.754Z,2.53
2017-09-02T18:36:58.423Z,2.57
2017-09-02T18:39:26.050Z,3.13
2017-09-02T18:41:53.657Z,2.87
2017-09-02T18:44:21.323Z,2.90
2017-09-02T18:46:48.959Z,2.60
2017-09-02T18:49:16.607Z,2.87
2017-09-02T18:51:44.979Z,2.67
2017-09-02T18:54:12.679Z,3.27
2017-09-02T18:56:40.303Z,3.20
2017-09-02T18:59:07.908Z,2.90
2017-09-02T19:01:35.556Z,2.77
2017-09-02T19:04:03.187Z,3.13
2017-09-02T19:06:31.729Z,3.77
2017-09-02T19:08:59.382Z,3.70
2017-09-02T19:14:36.178Z,6.53
2017-09-02T19:17:03.837Z,4.30
2017-09-02T19:19:31.482Z,4.17
2017-09-02T19:21:59.092Z,4.23
2017-09-02T19:24:26.691Z,4.10
2017-09-02T19:26:54.365Z,6.03
2017-09-02T19:29:21.974Z,7.37
2017-09-02T19:31:49.581Z,7.63
2017-09-02T19:34:17.186Z,6.30
2017-09-02T19:36:44.811Z,5.00
2017-09-02T19:39:12.394Z,4.80
2017-09-02T19:41:40.041Z,4.83
2017-09-02T19:44:07.642Z,4.30
2017-09-02T19:46:35.239Z,4.87
2017-09-02T19:49:02.866Z,4.43
2017-09-02T19:51:30.455Z,4.23
2017-09-02T19:53:58.055Z,4.53
2017-09-02T19:56:25.694Z,4.77
2017-09-02T19:58:53.324Z,5.13
2017-09-02T20:01:21.755Z,5.00
2017-09-02T20:03:49.380Z,4.67
2017-09-02T20:06:17.013Z,5.40
2017-09-02T20:08:44.655Z,4.50
2017-09-02T20:11:12.320Z,4.27
2017-09-02T20:13:40.866Z,4.70
2017-09-02T20:16:08.483Z,4.50
2017-09-02T20:21:26.411Z,4.77
2017-09-02T20:23:54.042Z,4.70
2017-09-02T20:26:21.766Z,5.27
2017-09-02T20:28:49.434Z,4.50
2017-09-02T20:31:17.054Z,4.90
2017-09-02T20:33:44.688Z,4.90
2017-09-02T20:36:12.346Z,4.83
2017-09-02T20:38:46.541Z,4.57
2017-09-02T20:41:14.203Z,4.40
2017-09-02T20:43:41.826Z,4.53
2017-09-02T20:46:09.429Z,4.70
2017-09-02T20:48:37.992Z,4.70
2017-09-02T20:51:05.827Z,4.50
2017-09-02T20:53:33.436Z,4.53
2017-09-02T20:56:01.043Z,5.10
2017-09-02T20:58:28.740Z,5.47
2017-09-02T21:00:56.341Z,4.23
2017-09-02T21:03:23.965Z,5.60
2017-09-02T21:05:51.613Z,5.03
2017-09-02T21:08:19.214Z,5.00
2017-09-02T21:10:46.833Z,4.60
2017-09-02T21:13:14.509Z,4.93
2017-09-02T21:15:42.160Z,4.60
2017-09-02T21:18:10.504Z,4.63
2017-09-02T21:20:38.110Z,4.80
2017-09-02T21:23:05.872Z,5.07
2017-09-02T21:25:33.476Z,4.67
2017-09-02T21:28:01.120Z,4.43
2017-09-02T21:30:28.732Z,4.90
2017-09-02T21:32:56.346Z,5.00
2017-09-02T21:35:23.955Z,4.50
2017-09-02T21:37:51.555Z,4.33
2017-09-02T21:40:19.934Z,4.97
2017-09-02T21:42:47.536Z,4.77
2017-09-02T21:45:15.156Z,4.53
2017-09-02T21:47:42.784Z,5.20
2017-09-02T21:50:10.384Z,5.00
2017-09-02T21:52:38.006Z,4.60
2017-09-02T21:55:06.222Z,5.07
2017-09-02T21:57:34.057Z,5.23
2017-09-02T22:00:01.651Z,5.17
2017-09-02T22:02:29.290Z,5.30
2017-09-02T22:04:56.956Z,5.17
2017-09-02T22:07:24.625Z,5.00
2017-09-02T22:09:52.270Z,4.50
2017-09-02T22:12:19.928Z,4.97
2017-09-02T22:14:47.578Z,5.43
2017-09-02T22:17:15.176Z,4.80
2017-09-02T22:19:42.799Z,5.40
2017-09-02T22:22:10.422Z,5.00
2017-09-02T22:24:38.016Z,5.17
2017-09-02T22:27:05.661Z,5.27
2017-09-02T22:29:33.307Z,5.17
2017-09-02T22:32:00.923Z,5.13
2017-09-02T22:34:28.530Z,4.80
2017-09-02T22:36:56.146Z,5.57
2017-09-02T22:39:23.740Z,5.47
2017-09-02T22:41:51.374Z,5.73
2017-09-02T22:44:18.964Z,5.43
2017-09-02T22:46:46.548Z,4.80
2017-09-02T22:49:14.177Z,4.97
2017-09-02T22:51:41.824Z,5.40
2017-09-02T22:54:09.443Z,5.47
2017-09-02T22:56:37.044Z,5.23
2017-09-02T22:59:04.668Z,5.80
2017-09-02T23:01:32.303Z,5.40
2017-09-02T23:03:59.908Z,5.70
2017-09-02T23:06:27.504Z,5.13
2017-09-02T23:08:55.119Z,5.20
2017-09-02T23:11:22.732Z,5.70
2017-09-02T23:13:50.374Z,5.40
2017-09-02T23:16:18.021Z,5.00
2017-09-02T23:18:45.637Z,4.83
2017-09-02T23:21:13.265Z,5.37
2017-09-02T23:23:40.951Z,5.10
2017-09-02T23:26:08.605Z,5.70
2017-09-02T23:28:36.222Z,5.40
2017-09-02T23:31:03.827Z,6.10
2017-09-02T23:33:31.515Z,6.10
2017-09-02T23:35:59.221Z,5.30
2017-09-02T23:38:26.830Z,5.40
2017-09-02T23:40:54.483Z,5.10
2017-09-02T23:43:22.097Z,5.10
2017-09-02T23:45:50.362Z,5.30
2017-09-02T23:48:18.008Z,5.50
2017-09-02T23:50:45.618Z,5.60
2017-09-02T23:53:13.235Z,5.33
2017-09-02T23:55:40.840Z,5.50
2017-09-02T23:58:08.450Z,5.13
